Time;durP1;ratioP1;P1;durP2;ratioP2;P2;SDS_P1;SDS_P2;PMS_P1;PMS_P2;Temp;Humidity;BMP_temperature;BMP_pressure;BME280_temperature;BME280_humidity;BME280_pressure;Samples;Min_cycle;Max_cycle;Signal;HPM_P1;HPM_P2
2023/11/18 00:02:25;;;;;;;37.15;18.42;;;;;;;4.68;85.52;99577.00;5081384;28;20066;-82
2023/11/18 00:04:51;;;;;;;32.95;17.40;;;;;;;4.87;84.71;99580.78;5085182;28;20043;-82
2023/11/18 00:07:17;;;;;;;38.17;18.63;;;;;;;4.86;84.50;99582.63;5078538;28;20027;-82
2023/11/18 00:09:45;;;;;;;30.60;16.50;;;;;;;4.88;84.67;99580.59;5082359;28;20031;-81
2023/11/18 00:12:11;;;;;;;34.10;17.13;;;;;;;4.81;84.77;99586.84;5073275;28;20032;-81
2023/11/18 00:14:36;;;;;;;37.35;17.13;;;;;;;4.83;84.48;99568.94;5077049;28;20368;-81
2023/11/18 00:17:02;;;;;;;33.28;18.52;;;;;;;4.82;83.90;99578.72;5076890;28;20031;-81
2023/11/18 00:19:28;;;;;;;28.85;15.35;;;;;;;4.85;84.79;99573.03;5060904;28;20075;-81
2023/11/18 00:21:53;;;;;;;37.63;16.40;;;;;;;4.87;84.07;99583.44;5082176;28;20047;-81
2023/11/18 00:24:18;;;;;;;27.50;14.45;;;;;;;4.81;84.00;99590.31;5076996;28;20047;-81
2023/11/18 00:26:44;;;;;;;29.83;16.05;;;;;;;4.33;84.46;99585.84;5083451;28;20107;-82
2023/11/18 00:29:09;;;;;;;29.85;15.02;;;;;;;4.30;84.44;99579.13;5081890;28;20108;-81
2023/11/18 00:31:34;;;;;;;35.45;15.77;;;;;;;4.62;84.37;99582.22;5068516;28;20031;-81
2023/11/18 00:34:00;;;;;;;33.75;17.05;;;;;;;4.03;85.31;99574.63;5080214;28;20050;-81
2023/11/18 00:36:26;;;;;;;28.15;16.20;;;;;;;4.40;85.68;99571.72;5081757;28;20024;-83
2023/11/18 00:38:52;;;;;;;33.25;17.05;;;;;;;4.61;84.80;99567.41;5068189;28;20043;-81
2023/11/18 00:41:17;;;;;;;38.30;18.92;;;;;;;4.63;84.13;99589.16;5074718;28;20070;-81
2023/11/18 00:43:42;;;;;;;44.78;20.60;;;;;;;4.59;84.06;99580.00;5076092;28;20090;-81
2023/11/18 00:46:08;;;;;;;49.55;21.92;;;;;;;4.65;84.23;99590.63;5072921;28;20035;-82
2023/11/18 00:48:33;;;;;;;50.63;21.33;;;;;;;4.70;84.21;99574.16;5079931;28;20028;-81
2023/11/18 00:50:58;;;;;;;55.85;24.65;;;;;;;4.61;83.47;99564.75;5079949;28;20120;-81
2023/11/18 00:53:24;;;;;;;53.75;23.90;;;;;;;4.41;84.81;99570.69;5048400;28;20480;-81
2023/11/18 00:55:49;;;;;;;56.97;25.63;;;;;;;4.37;84.39;99573.91;5049478;28;20393;-83
2023/11/18 00:58:15;;;;;;;62.00;25.38;;;;;;;4.56;84.61;99579.34;5080644;28;20342;-83
2023/11/18 01:00:40;;;;;;;56.25;27.40;;;;;;;4.53;84.19;99584.19;5079760;28;20778;-83
2023/11/18 01:03:05;;;;;;;63.13;31.67;;;;;;;4.46;84.67;99583.31;5077303;28;20161;-83
2023/11/18 01:05:31;;;;;;;73.95;29.08;;;;;;;3.94;86.42;99575.75;5088341;28;20032;-83
2023/11/18 01:07:59;;;;;;;68.57;31.23;;;;;;;4.24;86.13;99593.09;5084738;28;20021;-83
2023/11/18 01:10:25;;;;;;;64.38;29.17;;;;;;;4.12;86.13;99602.56;5090263;28;20024;-83
2023/11/18 01:12:50;;;;;;;69.25;28.70;;;;;;;3.85;87.07;99607.72;5088865;28;20099;-83
2023/11/18 01:15:15;;;;;;;72.32;33.97;;;;;;;3.87;88.14;99613.66;5054937;28;20085;-83
2023/11/18 01:17:41;;;;;;;67.35;33.83;;;;;;;3.27;89.65;99622.69;5088305;28;20051;-83
2023/11/18 01:20:10;;;;;;;71.13;30.30;;;;;;;3.69;89.44;99616.72;5065573;28;20037;-83
2023/11/18 01:22:37;;;;;;;75.35;29.75;;;;;;;3.96;88.47;99608.06;5080507;28;20032;-83
2023/11/18 01:25:04;;;;;;;72.45;31.92;;;;;;;4.09;86.56;99608.19;5083682;28;20032;-81
2023/11/18 01:27:29;;;;;;;76.13;31.02;;;;;;;4.63;85.55;99612.97;5087115;28;20292;-81
2023/11/18 01:29:55;;;;;;;70.68;29.70;;;;;;;4.48;85.08;99602.44;5084277;28;20067;-81
2023/11/18 01:32:20;;;;;;;63.05;30.00;;;;;;;4.58;85.30;99608.25;5071904;28;20024;-81
2023/11/18 01:34:50;;;;;;;58.13;26.50;;;;;;;4.54;84.84;99604.34;5085072;28;20070;-81
2023/11/18 01:37:16;;;;;;;50.63;26.15;;;;;;;4.55;84.71;99625.31;5077544;28;20546;-81
2023/11/18 01:39:41;;;;;;;67.63;27.13;;;;;;;4.50;84.88;99611.00;5085223;28;20511;-81
2023/11/18 01:42:06;;;;;;;54.35;26.98;;;;;;;4.58;84.45;99629.41;5077445;28;20035;-81
2023/11/18 01:44:33;;;;;;;57.67;25.70;;;;;;;4.43;85.23;99628.66;5066167;28;20060;-81
2023/11/18 01:47:05;;;;;;;52.40;25.10;;;;;;;4.31;84.58;99612.47;5076639;28;20150;-81
2023/11/18 01:49:32;;;;;;;63.72;24.85;;;;;;;4.25;85.28;99625.63;5077084;28;20463;-81
2023/11/18 01:51:59;;;;;;;52.60;25.02;;;;;;;4.22;85.58;99621.53;5079911;28;20031;-81
2023/11/18 01:54:25;;;;;;;53.45;24.58;;;;;;;4.21;86.13;99637.59;5091061;28;20361;-81
2023/11/18 01:56:51;;;;;;;50.63;24.73;;;;;;;4.41;85.39;99628.81;5074668;28;20031;-82
2023/11/18 01:59:20;;;;;;;51.53;23.13;;;;;;;4.38;85.86;99647.72;5068621;28;20081;-81
2023/11/18 02:01:53;;;;;;;39.13;19.60;;;;;;;3.96;85.48;99647.69;5075843;28;20032;-81
2023/11/18 02:04:19;;;;;;;44.75;21.42;;;;;;;4.32;85.85;99634.44;5087834;28;20046;-81
2023/11/18 02:06:47;;;;;;;40.58;23.13;;;;;;;4.59;84.80;99635.50;5083138;28;20067;-81
2023/11/18 02:09:17;;;;;;;42.47;20.38;;;;;;;4.44;84.57;99625.00;5084802;28;20029;-81
2023/11/18 02:11:53;;;;;;;39.00;19.92;;;;;;;4.26;85.26;99640.50;5081165;28;20032;-81
2023/11/18 02:14:20;;;;;;;36.63;20.13;;;;;;;4.51;84.68;99621.41;5085763;28;20027;-82
2023/11/18 02:16:49;;;;;;;37.40;21.65;;;;;;;4.60;84.40;99627.38;5086643;28;20024;-82
2023/11/18 02:19:24;;;;;;;38.47;19.85;;;;;;;4.57;84.80;99639.16;5078780;28;20047;-82
2023/11/18 02:21:50;;;;;;;38.40;18.90;;;;;;;4.46;84.35;99630.91;5081474;28;20119;-81
2023/11/18 02:24:37;;;;;;;41.50;19.00;;;;;;;4.65;84.08;99632.91;5076154;28;20044;-81
2023/11/18 02:27:11;;;;;;;32.75;18.77;;;;;;;4.52;84.46;99627.53;5081493;28;20034;-81
2023/11/18 02:29:40;;;;;;;35.15;17.58;;;;;;;4.61;84.37;99631.63;5082116;28;20589;-81
2023/11/18 02:32:23;;;;;;;38.40;19.52;;;;;;;4.67;84.61;99633.53;5073557;28;20063;-81
2023/11/18 02:34:57;;;;;;;38.55;16.92;;;;;;;4.54;84.35;99612.28;5076761;28;20040;-81
2023/11/18 02:37:24;;;;;;;34.95;16.95;;;;;;;4.56;83.91;99621.63;5088215;28;20032;-82
2023/11/18 02:39:57;;;;;;;33.45;17.95;;;;;;;4.30;84.63;99639.91;5084004;28;20419;-82
2023/11/18 02:42:23;;;;;;;40.17;19.77;;;;;;;3.20;87.92;99656.06;5080936;28;20434;-81
2023/11/18 02:44:51;;;;;;;35.58;20.85;;;;;;;2.70;90.48;99656.72;5072400;28;20040;-82
2023/11/18 02:47:16;;;;;;;33.80;20.33;;;;;;;2.63;92.08;99665.50;5084157;28;20417;-81
2023/11/18 02:49:42;;;;;;;34.83;20.15;;;;;;;3.33;91.33;99656.25;5078967;28;20032;-81
2023/11/18 02:52:09;;;;;;;36.35;19.35;;;;;;;3.58;90.34;99654.13;5078507;28;20050;-81
2023/11/18 02:54:35;;;;;;;34.08;18.42;;;;;;;3.79;88.35;99633.91;5062628;28;20071;-81
2023/11/18 02:57:01;;;;;;;28.70;17.83;;;;;;;4.07;87.08;99641.09;5086973;28;20032;-81
2023/11/18 02:59:30;;;;;;;30.38;17.23;;;;;;;4.19;86.68;99635.16;5083583;28;20063;-81
2023/11/18 03:01:55;;;;;;;36.83;17.23;;;;;;;4.29;86.15;99646.22;5077335;28;20043;-81
2023/11/18 03:04:20;;;;;;;28.58;16.80;;;;;;;4.47;85.38;99653.69;5086830;28;20040;-81
2023/11/18 03:06:46;;;;;;;29.00;16.48;;;;;;;4.35;85.06;99634.03;5086229;28;20507;-81
2023/11/18 03:09:11;;;;;;;28.48;16.00;;;;;;;4.51;84.67;99637.28;5068216;28;20031;-81
2023/11/18 03:11:37;;;;;;;27.48;16.08;;;;;;;4.54;84.24;99638.72;5068872;28;20037;-81
2023/11/18 03:14:04;;;;;;;24.70;16.00;;;;;;;4.39;84.55;99638.78;5076810;28;20090;-81
2023/11/18 03:16:30;;;;;;;26.15;15.70;;;;;;;4.32;84.98;99630.00;5064617;28;20036;-81
2023/11/18 03:18:55;;;;;;;28.45;14.88;;;;;;;4.46;84.07;99629.09;5083262;28;20038;-81
2023/11/18 03:21:20;;;;;;;28.20;16.80;;;;;;;4.43;84.19;99626.81;5077734;28;20032;-81
2023/11/18 03:23:46;;;;;;;25.30;14.32;;;;;;;4.38;84.33;99631.03;5078722;28;20036;-81
2023/11/18 03:26:11;;;;;;;29.70;15.68;;;;;;;4.36;83.83;99612.75;5068315;28;20032;-81
2023/11/18 03:28:37;;;;;;;25.98;14.77;;;;;;;4.37;83.67;99624.94;5080546;28;20077;-81
2023/11/18 03:31:06;;;;;;;22.48;14.38;;;;;;;4.36;83.56;99620.66;5079027;28;20048;-82
2023/11/18 03:33:32;;;;;;;24.30;15.00;;;;;;;4.35;83.68;99634.03;5076806;28;20563;-81
2023/11/18 03:35:58;;;;;;;28.23;15.45;;;;;;;4.27;83.97;99623.63;5088885;28;20059;-81
2023/11/18 03:38:23;;;;;;;25.30;15.20;;;;;;;4.22;83.56;99626.00;5088226;28;20063;-81
2023/11/18 03:40:49;;;;;;;25.60;14.80;;;;;;;4.21;83.30;99624.38;5086861;28;20028;-81
2023/11/18 03:43:14;;;;;;;25.77;14.93;;;;;;;4.30;82.83;99636.47;5083634;28;20036;-81
2023/11/18 03:45:40;;;;;;;28.75;15.32;;;;;;;4.17;83.51;99642.41;5076831;28;20028;-81
2023/11/18 03:48:07;;;;;;;26.58;14.85;;;;;;;4.04;84.11;99642.28;5072131;28;20112;-81
2023/11/18 03:50:33;;;;;;;27.75;15.75;;;;;;;4.08;83.39;99640.91;5078680;28;20030;-81
2023/11/18 03:52:58;;;;;;;27.02;15.93;;;;;;;4.00;82.93;99632.28;5082615;28;20024;-81
2023/11/18 03:55:25;;;;;;;31.60;16.90;;;;;;;4.09;82.67;99649.63;5069395;28;20042;-81
2023/11/18 03:57:51;;;;;;;27.13;15.98;;;;;;;3.90;82.48;99637.03;5084614;28;20032;-81
2023/11/18 04:00:17;;;;;;;24.92;15.73;;;;;;;4.01;83.10;99640.03;5079761;28;20036;-81
2023/11/18 04:02:42;;;;;;;27.88;16.00;;;;;;;3.90;82.30;99624.66;5084014;28;20480;-81
2023/11/18 04:05:08;;;;;;;32.03;16.73;;;;;;;3.85;82.15;99621.75;5080462;28;20039;-81
2023/11/18 04:07:34;;;;;;;28.50;15.43;;;;;;;3.77;82.18;99624.53;5065053;28;20034;-82
2023/11/18 04:10:00;;;;;;;29.40;16.13;;;;;;;3.69;82.20;99622.00;5084546;28;20036;-81
2023/11/18 04:12:26;;;;;;;28.73;16.35;;;;;;;3.78;82.71;99640.16;5084710;28;20476;-82
2023/11/18 04:14:52;;;;;;;26.85;15.50;;;;;;;3.75;82.28;99632.63;5081818;28;20484;-82
2023/11/18 04:17:17;;;;;;;28.42;16.15;;;;;;;3.78;81.66;99631.41;5080798;28;20027;-81
2023/11/18 04:19:43;;;;;;;29.08;16.23;;;;;;;3.71;81.35;99622.63;5076089;28;20434;-82
2023/11/18 04:22:09;;;;;;;31.77;16.38;;;;;;;3.66;81.54;99625.81;5080218;28;20056;-81
2023/11/18 04:24:35;;;;;;;25.98;15.18;;;;;;;3.66;81.14;99625.00;5075441;28;20475;-81
2023/11/18 04:27:02;;;;;;;25.90;15.60;;;;;;;3.54;81.32;99626.47;5060795;28;20032;-81
2023/11/18 04:29:27;;;;;;;27.85;15.68;;;;;;;3.58;81.13;99619.84;5068391;28;20388;-81
2023/11/18 04:31:53;;;;;;;29.88;15.88;;;;;;;3.61;81.33;99624.72;5060701;28;20024;-81
2023/11/18 04:34:19;;;;;;;27.65;16.73;;;;;;;3.69;81.37;99629.91;5085098;28;20040;-81
2023/11/18 04:36:44;;;;;;;26.58;15.68;;;;;;;3.57;81.35;99608.44;5082819;28;20046;-81
2023/11/18 04:39:11;;;;;;;26.42;14.55;;;;;;;3.56;81.58;99608.66;5081177;28;20032;-81
2023/11/18 04:41:37;;;;;;;23.90;15.07;;;;;;;3.60;80.75;99608.06;5079879;28;20048;-81
2023/11/18 04:44:02;;;;;;;25.13;14.73;;;;;;;3.65;81.22;99616.25;5085279;28;20074;-82
2023/11/18 04:46:28;;;;;;;28.08;15.68;;;;;;;3.68;81.05;99621.16;5079356;28;20057;-81
2023/11/18 04:48:54;;;;;;;30.25;15.07;;;;;;;3.54;80.61;99613.25;5066990;28;20032;-82
2023/11/18 04:51:21;;;;;;;22.80;13.52;;;;;;;3.42;80.84;99612.09;5081985;28;20024;-81
2023/11/18 04:53:46;;;;;;;22.50;12.35;;;;;;;3.41;80.92;99616.56;5065287;28;20502;-82
2023/11/18 04:56:13;;;;;;;21.02;12.98;;;;;;;3.43;80.90;99622.47;5082442;28;20032;-82
2023/11/18 04:58:39;;;;;;;19.73;11.93;;;;;;;3.37;81.24;99611.81;5066638;28;20086;-81
2023/11/18 05:01:05;;;;;;;22.60;12.55;;;;;;;3.27;81.15;99622.69;5078835;28;20567;-81
2023/11/18 05:03:30;;;;;;;18.15;12.75;;;;;;;3.43;80.91;99611.13;5067097;28;20123;-81
2023/11/18 05:05:56;;;;;;;20.48;11.82;;;;;;;3.31;80.48;99600.22;5080314;28;20039;-82
2023/11/18 05:08:21;;;;;;;19.00;11.43;;;;;;;3.28;80.55;99597.09;5069411;28;20115;-81
2023/11/18 05:10:48;;;;;;;21.58;11.93;;;;;;;3.36;80.74;99594.38;5085598;28;20039;-81
2023/11/18 05:13:16;;;;;;;21.75;11.68;;;;;;;3.28;80.57;99605.00;5086141;28;20060;-81
2023/11/18 05:15:45;;;;;;;20.80;11.75;;;;;;;3.29;80.73;99607.50;5082785;28;20036;-81
2023/11/18 05:18:14;;;;;;;19.15;11.50;;;;;;;3.35;80.69;99605.91;5088036;28;20068;-81
2023/11/18 05:20:46;;;;;;;22.10;12.38;;;;;;;3.25;80.70;99600.94;5073585;28;20046;-81
2023/11/18 05:23:12;;;;;;;22.52;11.52;;;;;;;3.30;80.60;99590.63;5052485;28;20029;-81
2023/11/18 05:25:46;;;;;;;19.85;10.75;;;;;;;3.18;80.75;99594.75;5077151;28;20081;-81
2023/11/18 05:28:11;;;;;;;16.48;10.70;;;;;;;3.23;81.05;99587.13;5082698;28;20032;-81
2023/11/18 05:30:37;;;;;;;25.67;13.45;;;;;;;3.23;80.35;99594.22;5080037;28;20038;-81
2023/11/18 05:33:05;;;;;;;21.58;12.82;;;;;;;3.24;81.20;99598.47;5080875;28;20039;-81
2023/11/18 05:35:31;;;;;;;17.88;11.98;;;;;;;3.24;80.72;99580.84;5085063;28;20146;-81
2023/11/18 05:37:57;;;;;;;22.88;12.90;;;;;;;3.31;80.32;99586.19;5071900;28;20046;-81
2023/11/18 05:40:22;;;;;;;25.30;13.63;;;;;;;3.28;80.17;99597.94;5079435;28;20476;-81
2023/11/18 05:42:51;;;;;;;22.60;13.13;;;;;;;3.26;80.01;99596.47;5080544;28;20542;-81
2023/11/18 05:45:27;;;;;;;25.65;13.30;;;;;;;3.15;80.19;99583.75;5084570;28;20040;-82
2023/11/18 05:47:56;;;;;;;24.83;13.10;;;;;;;3.20;79.86;99589.28;5080632;28;20399;-81
2023/11/18 05:50:24;;;;;;;30.05;14.05;;;;;;;3.07;79.88;99570.66;5085368;28;20111;-82
2023/11/18 05:52:50;;;;;;;28.00;14.77;;;;;;;3.02;80.37;99589.66;5082525;28;20123;-81
2023/11/18 05:55:16;;;;;;;22.33;13.15;;;;;;;2.92;80.48;99563.59;5088285;28;20159;-81
2023/11/18 05:57:45;;;;;;;20.80;11.32;;;;;;;2.94;80.67;99582.66;5086067;28;20042;-81
2023/11/18 06:00:15;;;;;;;15.77;10.98;;;;;;;2.90;80.71;99578.78;5082860;28;20115;-81
2023/11/18 06:02:44;;;;;;;17.48;10.30;;;;;;;2.86;80.38;99580.09;5065490;28;20032;-81
2023/11/18 06:05:09;;;;;;;20.08;10.88;;;;;;;2.98;80.32;99578.66;5083047;28;20377;-81
2023/11/18 06:07:35;;;;;;;20.13;9.90;;;;;;;2.95;80.55;99581.66;5079423;28;20046;-81
2023/11/18 06:10:05;;;;;;;22.38;11.20;;;;;;;2.84;79.98;99563.66;5064272;28;20036;-81
2023/11/18 06:12:31;;;;;;;16.98;9.18;;;;;;;2.83;80.37;99575.22;5072301;28;20056;-81
2023/11/18 06:14:57;;;;;;;16.70;9.55;;;;;;;2.81;80.16;99579.84;5072516;28;20578;-81
2023/11/18 06:17:23;;;;;;;15.90;9.13;;;;;;;2.86;80.29;99585.38;5079383;28;20032;-81
2023/11/18 06:19:49;;;;;;;14.85;9.77;;;;;;;2.93;80.06;99581.03;5072053;28;20028;-81
2023/11/18 06:22:15;;;;;;;19.70;9.55;;;;;;;2.91;79.74;99571.66;5081509;28;20036;-81
2023/11/18 06:24:41;;;;;;;17.90;9.05;;;;;;;2.89;79.88;99585.03;5072382;28;20040;-81
2023/11/18 06:27:08;;;;;;;14.85;8.57;;;;;;;2.79;80.25;99579.22;5052726;28;20048;-81
2023/11/18 06:29:34;;;;;;;11.82;7.85;;;;;;;2.79;79.73;99566.03;5087616;28;20458;-81
2023/11/18 06:31:59;;;;;;;15.60;8.98;;;;;;;2.86;79.72;99574.84;5084856;28;20051;-81
2023/11/18 06:34:26;;;;;;;14.13;9.63;;;;;;;2.73;80.00;99592.28;5066794;28;20029;-82
2023/11/18 06:36:52;;;;;;;15.82;9.07;;;;;;;2.77;79.98;99589.13;5083796;28;20043;-82
2023/11/18 06:39:19;;;;;;;13.82;8.77;;;;;;;2.86;79.63;99598.56;5065727;28;20395;-82
2023/11/18 06:41:50;;;;;;;13.25;7.90;;;;;;;2.79;79.74;99587.13;5080696;28;20491;-81
2023/11/18 06:44:18;;;;;;;21.58;10.05;;;;;;;2.87;79.45;99596.75;5082983;28;20038;-81
2023/11/18 06:46:44;;;;;;;42.92;21.38;;;;;;;2.83;79.75;99601.56;5080799;28;20072;-82
2023/11/18 06:49:15;;;;;;;44.45;24.17;;;;;;;2.96;79.61;99608.84;5076442;28;20500;-81
2023/11/18 06:51:40;;;;;;;49.95;25.60;;;;;;;2.86;79.01;99613.56;5086359;28;20024;-81
2023/11/18 06:54:09;;;;;;;35.75;19.90;;;;;;;2.83;79.75;99612.13;5082104;28;20040;-81
2023/11/18 06:56:42;;;;;;;24.73;14.43;;;;;;;2.73;79.96;99608.91;5080381;28;20456;-81
2023/11/18 06:59:08;;;;;;;21.10;12.00;;;;;;;2.78;79.43;99609.19;5082070;28;20059;-81
2023/11/18 07:01:36;;;;;;;22.02;11.38;;;;;;;2.60;79.87;99600.78;5073922;28;20040;-81
2023/11/18 07:04:01;;;;;;;17.65;11.35;;;;;;;2.68;80.36;99615.72;5078257;28;20028;-81
2023/11/18 07:06:27;;;;;;;15.82;10.00;;;;;;;2.74;80.21;99623.72;5084807;28;20042;-81
2023/11/18 07:08:54;;;;;;;12.43;8.57;;;;;;;2.86;79.50;99619.66;5086567;28;20033;-81
2023/11/18 07:11:22;;;;;;;13.25;8.65;;;;;;;2.52;80.28;99629.84;5086995;28;20025;-81
2023/11/18 07:13:49;;;;;;;13.98;8.43;;;;;;;2.81;80.14;99634.38;5087393;28;20119;-81
2023/11/18 07:16:14;;;;;;;13.05;8.73;;;;;;;2.91;80.52;99627.00;5081604;28;21556;-81
2023/11/18 07:18:42;;;;;;;12.00;8.00;;;;;;;2.82;80.22;99639.47;5069249;28;20043;-81
2023/11/18 07:21:09;;;;;;;14.75;8.52;;;;;;;2.67;81.53;99649.16;5077266;28;20531;-81
2023/11/18 07:23:35;;;;;;;14.95;10.10;;;;;;;2.80;80.79;99627.44;5068732;28;20070;-81
2023/11/18 07:26:03;;;;;;;22.58;11.85;;;;;;;2.85;80.93;99644.38;5074827;28;20056;-81
2023/11/18 07:28:29;;;;;;;30.65;14.65;;;;;;;2.74;81.73;99638.72;5080345;28;20078;-82
2023/11/18 07:30:54;;;;;;;30.42;17.63;;;;;;;2.65;82.07;99622.16;5066481;28;20481;-81
2023/11/18 07:33:20;;;;;;;36.45;18.63;;;;;;;2.85;81.79;99636.47;5079486;28;20028;-81
2023/11/18 07:35:48;;;;;;;31.00;16.45;;;;;;;2.87;81.59;99626.56;5080359;28;20066;-81
2023/11/18 07:38:13;;;;;;;25.95;15.63;;;;;;;2.88;82.23;99622.13;5066795;28;20444;-81
2023/11/18 07:40:45;;;;;;;27.08;14.45;;;;;;;3.03;81.54;99634.31;5084556;28;20107;-81
2023/11/18 07:43:14;;;;;;;23.35;13.80;;;;;;;3.01;81.48;99640.78;5081087;28;20089;-81
2023/11/18 07:45:39;;;;;;;25.42;13.50;;;;;;;2.91;81.45;99634.94;5053751;28;20040;-82
2023/11/18 07:48:09;;;;;;;22.27;13.25;;;;;;;3.09;81.45;99639.84;5091111;28;20459;-82
2023/11/18 07:50:42;;;;;;;20.73;13.27;;;;;;;2.96;81.30;99633.41;5094469;28;20069;-82
2023/11/18 07:53:07;;;;;;;24.95;13.18;;;;;;;3.06;81.87;99629.69;5064576;28;20391;-81
2023/11/18 07:55:34;;;;;;;19.67;12.00;;;;;;;3.09;81.22;99630.13;5087211;28;20028;-82
2023/11/18 07:58:03;;;;;;;19.40;12.57;;;;;;;3.03;81.96;99639.59;5065465;28;20029;-82
2023/11/18 08:00:33;;;;;;;22.90;13.43;;;;;;;3.16;82.10;99638.13;5088446;28;20035;-82
2023/11/18 08:03:00;;;;;;;19.90;12.23;;;;;;;3.13;81.69;99644.59;5078100;28;20028;-82
2023/11/18 08:05:26;;;;;;;21.58;13.85;;;;;;;3.10;81.73;99646.78;5081861;28;20027;-82
2023/11/18 08:07:53;;;;;;;20.27;12.80;;;;;;;3.10;81.96;99644.97;5075189;28;20040;-82
2023/11/18 08:10:19;;;;;;;23.08;13.95;;;;;;;3.15;81.96;99665.50;5084837;28;20058;-82
2023/11/18 08:12:45;;;;;;;29.45;14.85;;;;;;;2.98;82.62;99636.69;5079671;28;20016;-82
2023/11/18 08:15:10;;;;;;;22.80;13.93;;;;;;;3.21;82.10;99651.59;5063249;28;20832;-82
2023/11/18 08:17:36;;;;;;;20.02;12.73;;;;;;;3.15;82.31;99647.03;5089282;28;20083;-83
2023/11/18 08:20:13;;;;;;;23.17;13.85;;;;;;;3.09;82.47;99658.31;5076764;28;20028;-82
2023/11/18 08:22:46;;;;;;;22.08;13.25;;;;;;;3.08;82.00;99651.41;5064609;28;20066;-84
2023/11/18 08:25:12;;;;;;;21.85;12.23;;;;;;;3.27;82.61;99669.34;5074429;28;20090;-83
2023/11/18 08:27:41;;;;;;;17.17;11.38;;;;;;;3.22;82.06;99659.31;5082013;28;20024;-82
2023/11/18 08:30:11;;;;;;;21.65;12.18;;;;;;;3.21;82.47;99654.25;5067726;28;20037;-82
2023/11/18 08:32:45;;;;;;;21.33;11.75;;;;;;;3.23;82.40;99637.25;5079410;28;20032;-82
2023/11/18 08:35:13;;;;;;;18.88;12.52;;;;;;;3.29;82.43;99638.31;5068864;28;20035;-82
2023/11/18 08:37:39;;;;;;;23.63;13.25;;;;;;;3.42;82.41;99627.94;5080603;28;20024;-82
2023/11/18 08:40:06;;;;;;;17.90;11.77;;;;;;;3.40;83.08;99637.84;5075037;28;20522;-82
2023/11/18 08:42:33;;;;;;;18.38;12.40;;;;;;;3.36;82.58;99621.59;5083663;28;20027;-82
2023/11/18 08:44:59;;;;;;;23.70;13.15;;;;;;;3.49;82.35;99628.84;5088315;28;20073;-82
2023/11/18 08:47:25;;;;;;;20.42;11.98;;;;;;;3.35;83.22;99640.22;5057378;28;20043;-82
2023/11/18 08:49:50;;;;;;;20.27;12.95;;;;;;;3.32;83.48;99641.41;5048723;28;20101;-82
2023/11/18 08:52:17;;;;;;;21.77;12.50;;;;;;;3.50;82.94;99643.66;5085195;28;20021;-82
2023/11/18 08:55:17;;;;;;;17.38;11.70;;;;;;;3.58;83.16;99643.59;5081636;28;20027;-82
2023/11/18 08:57:48;;;;;;;18.90;12.18;;;;;;;3.65;82.81;99640.00;5082191;28;20046;-82
2023/11/18 09:03:01;;;;;;;18.50;11.27;;;;;;;3.67;82.89;99631.91;5088143;28;20131;-82
2023/11/18 09:05:31;;;;;;;19.42;12.02;;;;;;;3.71;82.78;99639.25;5081672;28;20111;-82
2023/11/18 09:07:57;;;;;;;17.15;10.80;;;;;;;3.88;82.32;99647.81;5050194;28;20036;-82
2023/11/18 09:10:23;;;;;;;16.63;10.02;;;;;;;3.96;82.33;99649.50;5052275;28;20070;-83
2023/11/18 09:12:49;;;;;;;19.65;10.32;;;;;;;3.76;82.62;99625.50;5086145;28;20042;-82
2023/11/18 09:15:22;;;;;;;22.75;10.95;;;;;;;3.78;82.86;99637.53;5079087;28;20032;-82
2023/11/18 09:17:50;;;;;;;16.42;10.95;;;;;;;3.92;82.46;99625.28;5072282;28;20036;-83
2023/11/18 09:20:22;;;;;;;20.63;10.85;;;;;;;3.66;84.86;99632.91;5077058;28;20032;-83
2023/11/18 09:22:55;;;;;;;19.10;11.20;;;;;;;3.97;83.22;99620.28;5066599;28;20396;-82
2023/11/18 09:25:22;;;;;;;14.98;9.70;;;;;;;4.10;82.42;99624.88;5065436;28;20427;-82
2023/11/18 09:27:48;;;;;;;15.32;10.93;;;;;;;3.60;84.97;99623.09;5060032;28;20119;-83
2023/11/18 09:30:14;;;;;;;18.02;9.90;;;;;;;3.96;83.90;99617.81;5057501;28;20432;-82
2023/11/18 09:32:43;;;;;;;16.35;11.48;;;;;;;4.16;82.46;99619.66;5093597;28;20028;-82
2023/11/18 09:35:09;;;;;;;18.08;10.75;;;;;;;4.14;82.47;99620.84;5087407;28;20556;-82
2023/11/18 09:37:36;;;;;;;16.63;10.82;;;;;;;3.86;83.88;99622.59;5085666;28;20361;-83
2023/11/18 09:40:11;;;;;;;15.88;9.88;;;;;;;4.05;83.05;99619.31;5070860;28;20024;-82
2023/11/18 09:42:38;;;;;;;14.90;9.57;;;;;;;4.03;84.57;99619.53;5075514;28;20962;-83
2023/11/18 09:45:05;;;;;;;20.40;11.35;;;;;;;4.14;83.46;99611.09;5065101;28;20028;-82
2023/11/18 09:47:39;;;;;;;16.20;11.18;;;;;;;4.00;84.94;99611.97;5089483;28;20028;-83
2023/11/18 09:50:10;;;;;;;17.40;10.38;;;;;;;4.31;83.09;99612.47;5093020;28;20034;-83
2023/11/18 09:52:42;;;;;;;19.17;12.55;;;;;;;4.28;82.83;99599.63;5088116;28;20024;-82
2023/11/18 09:55:23;;;;;;;15.55;11.82;;;;;;;3.91;84.67;99602.53;5086571;28;20390;-83
2023/11/18 09:57:57;;;;;;;15.32;11.55;;;;;;;4.09;84.17;99610.84;5070937;28;20407;-82
2023/11/18 10:00:26;;;;;;;20.45;13.25;;;;;;;4.37;83.31;99618.81;5092831;28;20380;-83
2023/11/18 10:02:55;;;;;;;21.75;12.55;;;;;;;4.23;83.32;99611.78;5081740;28;20082;-82
2023/11/18 10:05:22;;;;;;;16.40;11.35;;;;;;;4.20;83.71;99618.28;5089495;28;20047;-82
2023/11/18 10:07:48;;;;;;;20.85;12.15;;;;;;;4.19;83.93;99600.78;5088729;28;20546;-83
2023/11/18 10:10:16;;;;;;;23.33;13.25;;;;;;;4.23;83.52;99607.34;5080928;28;20029;-83
2023/11/18 10:12:44;;;;;;;25.02;12.93;;;;;;;4.26;83.54;99606.16;5075628;28;20047;-83
2023/11/18 10:15:13;;;;;;;24.38;12.77;;;;;;;4.32;83.18;99590.34;5094840;28;20111;-82
2023/11/18 10:18:06;;;;;;;22.42;13.20;;;;;;;4.29;82.94;99581.97;5097001;28;20028;-82
2023/11/18 10:20:45;;;;;;;27.73;13.05;;;;;;;3.91;84.31;99586.69;5068135;28;20048;-83
2023/11/18 10:23:11;;;;;;;25.25;13.73;;;;;;;4.24;84.88;99587.81;5086100;28;20032;-83
2023/11/18 10:25:45;;;;;;;17.58;10.50;;;;;;;3.91;85.40;99581.41;5086711;28;20020;-82
2023/11/18 10:28:41;;;;;;;16.13;11.00;;;;;;;3.80;85.28;99563.41;5083390;28;20109;-83
2023/11/18 10:31:09;;;;;;;23.15;11.30;;;;;;;4.24;84.34;99573.78;5084855;28;20024;-83
2023/11/18 10:33:41;;;;;;;23.27;11.43;;;;;;;4.04;85.16;99570.16;5071490;28;20028;-83
2023/11/18 10:36:22;;;;;;;24.35;11.35;;;;;;;3.99;85.52;99557.53;5086051;28;20387;-83
2023/11/18 10:38:49;;;;;;;20.77;10.95;;;;;;;4.00;86.00;99543.28;5085536;28;20032;-83
2023/11/18 10:41:16;;;;;;;19.90;10.90;;;;;;;4.19;86.47;99550.59;5079140;28;20032;-82
2023/11/18 10:43:44;;;;;;;17.15;10.10;;;;;;;4.06;84.57;99500.31;5064748;28;20027;-82
2023/11/18 10:46:11;;;;;;;18.60;10.18;;;;;;;4.44;85.19;99551.81;5067257;28;20032;-83
2023/11/18 10:48:50;;;;;;;16.85;10.63;;;;;;;4.33;85.15;99543.56;5083027;28;20074;-82
2023/11/18 10:51:20;;;;;;;16.15;10.55;;;;;;;4.20;85.44;99543.47;5085045;28;20472;-82
2023/11/18 10:53:53;;;;;;;15.25;9.43;;;;;;;4.45;84.62;99560.56;5071197;28;20027;-83
2023/11/18 10:56:28;;;;;;;12.45;8.70;;;;;;;4.22;86.08;99563.41;5071639;28;20039;-82
2023/11/18 10:59:16;;;;;;;15.85;9.30;;;;;;;4.67;84.19;99567.44;5083650;28;20499;-82
2023/11/18 11:01:42;;;;;;;15.30;9.25;;;;;;;4.69;84.03;99546.09;5091126;28;20028;-82
2023/11/18 11:04:16;;;;;;;15.75;8.20;;;;;;;4.73;83.35;99540.22;5081283;28;20063;-82
2023/11/18 11:06:52;;;;;;;14.50;8.25;;;;;;;4.77;83.78;99543.28;5082710;28;20026;-83
2023/11/18 11:09:27;;;;;;;13.70;9.25;;;;;;;4.57;84.98;99525.47;5074325;28;20111;-82
2023/11/18 11:11:59;;;;;;;19.55;9.13;;;;;;;4.76;83.62;99508.09;5070671;28;20040;-82
2023/11/18 11:14:35;;;;;;;16.17;9.68;;;;;;;4.86;83.59;99528.91;5085045;28;20047;-82
2023/11/18 11:17:11;;;;;;;14.25;9.60;;;;;;;4.84;83.98;99515.06;5083816;28;20031;-82
2023/11/18 11:19:55;;;;;;;19.50;10.10;;;;;;;4.38;84.59;99483.88;5092934;27;20024;-83
2023/11/18 11:22:29;;;;;;;19.27;10.60;;;;;;;4.10;86.38;99493.63;5084353;28;20475;-82
2023/11/18 11:25:21;;;;;;;13.23;9.40;;;;;;;4.77;84.54;99504.44;5076992;28;20548;-83
2023/11/18 11:28:05;;;;;;;14.70;9.27;;;;;;;4.95;83.84;99502.09;5081051;28;20054;-83
2023/11/18 11:30:44;;;;;;;12.65;9.13;;;;;;;4.80;84.78;99485.56;5084799;28;20027;-83
2023/11/18 11:33:28;;;;;;;14.48;10.38;;;;;;;4.69;84.74;99485.28;5079286;28;20031;-83
2023/11/18 11:36:02;;;;;;;16.80;10.40;;;;;;;4.76;85.78;99499.34;5082075;28;20031;-83